Time;durP1;ratioP1;P1;durP2;ratioP2;P2;SDS_P1;SDS_P2;PMS_P1;PMS_P2;Temp;Humidity;BMP_temperature;BMP_pressure;BME280_temperature;BME280_humidity;BME280_pressure;Samples;Min_cycle;Max_cycle;Signal;HPM_P1;HPM_P2
2022/06/12 00:02:04;;;;;;;10.38;3.42;;;;;;;;;;5105828;28;20122;-84
2022/06/12 00:04:30;;;;;;;9.98;2.80;;;;;;;;;;5100092;27;20039;-84
2022/06/12 00:06:56;;;;;;;7.32;2.70;;;;;;;;;;5080928;28;20039;-84
2022/06/12 00:09:22;;;;;;;8.40;3.25;;;;;;;;;;5089911;27;20059;-84
2022/06/12 00:11:49;;;;;;;9.73;3.17;;;;;;;;;;5078692;27;20444;-84
2022/06/12 00:14:15;;;;;;;9.23;3.20;;;;;;;;;;5085877;28;20032;-84
2022/06/12 00:16:45;;;;;;;12.18;3.65;;;;;;;;;;5102924;27;20122;-84
2022/06/12 00:19:20;;;;;;;9.93;2.92;;;;;;;;;;5077264;28;20043;-84
2022/06/12 00:21:47;;;;;;;8.38;2.78;;;;;;;;;;5079948;28;20459;-84
2022/06/12 00:24:14;;;;;;;13.52;3.08;;;;;;;;;;5110933;28;20071;-84
2022/06/12 00:26:45;;;;;;;10.98;3.05;;;;;;;;;;5080601;28;20035;-84
2022/06/12 00:29:17;;;;;;;8.10;3.25;;;;;;;;;;5107126;28;20379;-84
2022/06/12 00:31:45;;;;;;;10.10;3.38;;;;;;;;;;5096580;28;20042;-84
2022/06/12 00:34:12;;;;;;;10.45;3.05;;;;;;;;;;5100139;28;20039;-84
2022/06/12 00:36:38;;;;;;;10.00;2.92;;;;;;;;;;5105687;28;20039;-84
2022/06/12 00:39:05;;;;;;;9.18;3.03;;;;;;;;;;5093890;28;20060;-83
2022/06/12 00:41:31;;;;;;;7.47;2.60;;;;;;;;;;5083525;28;20042;-83
2022/06/12 00:43:57;;;;;;;10.13;3.22;;;;;;;;;;5085623;28;20570;-83
2022/06/12 00:46:42;;;;;;;9.63;3.10;;;;;;;;;;5091783;27;20039;-83
2022/06/12 00:49:13;;;;;;;6.35;2.78;;;;;;;;;;5065612;27;20039;-83
2022/06/12 00:51:40;;;;;;;11.70;3.72;;;;;;;;;;5106341;28;20054;-83
2022/06/12 00:54:06;;;;;;;8.07;3.33;;;;;;;;;;5107386;27;20069;-84
2022/06/12 00:56:38;;;;;;;10.25;3.35;;;;;;;;;;5098247;28;20039;-83
2022/06/12 00:59:13;;;;;;;9.05;3.40;;;;;;;;;;5109973;28;20054;-83
2022/06/12 01:01:42;;;;;;;6.80;2.65;;;;;;;;;;5087332;27;20042;-83
2022/06/12 01:06:55;;;;;;;8.00;3.05;;;;;;;;;;5098301;27;20540;-84
2022/06/12 01:09:30;;;;;;;11.02;3.25;;;;;;;;;;5105384;28;20459;-84
2022/06/12 01:11:58;;;;;;;7.95;2.90;;;;;;;;;;5091394;27;20091;-83
2022/06/12 01:14:27;;;;;;;11.05;3.38;;;;;;;;;;5081098;27;20047;-83
2022/06/12 01:16:57;;;;;;;10.25;3.15;;;;;;;;;;5091480;28;20036;-83
2022/06/12 01:19:37;;;;;;;8.60;3.10;;;;;;;;;;5104631;27;20047;-83
2022/06/12 01:22:19;;;;;;;9.65;3.38;;;;;;;;;;5081361;28;20042;-83
2022/06/12 01:24:48;;;;;;;8.60;3.28;;;;;;;;;;5068492;27;20628;-83
2022/06/12 01:27:33;;;;;;;10.60;3.28;;;;;;;;;;5087056;28;20071;-83
2022/06/12 01:30:20;;;;;;;9.63;3.40;;;;;;;;;;5093909;27;20389;-83
2022/06/12 01:33:05;;;;;;;10.32;3.53;;;;;;;;;;5089523;28;20548;-83
2022/06/12 01:35:30;;;;;;;;;;;;;;;;;;5090872;27;20418;-83
2022/06/12 01:38:06;;;;;;;9.05;3.33;;;;;;;;;;5113221;27;20347;-83
2022/06/12 01:40:37;;;;;;;8.43;3.35;;;;;;;;;;5082908;27;20476;-83
2022/06/12 01:43:10;;;;;;;9.63;3.00;;;;;;;;;;5085969;28;20046;-83
2022/06/12 01:45:48;;;;;;;11.23;3.40;;;;;;;;;;5092035;27;20035;-83
2022/06/12 01:48:26;;;;;;;7.78;3.25;;;;;;;;;;5079177;27;20038;-83
2022/06/12 01:51:19;;;;;;;10.35;3.47;;;;;;;;;;5086693;28;20039;-83
2022/06/12 01:53:52;;;;;;;8.23;3.28;;;;;;;;;;5105141;27;20047;-83
2022/06/12 01:56:23;;;;;;;10.70;3.67;;;;;;;;;;5067209;28;20433;-83
2022/06/12 01:58:56;;;;;;;6.85;3.10;;;;;;;;;;5087505;27;20051;-83
2022/06/12 02:01:22;;;;;;;9.65;3.70;;;;;;;;;;5080201;28;20164;-83
2022/06/12 02:03:54;;;;;;;12.25;3.33;;;;;;;;;;5092869;28;20567;-83
2022/06/12 02:06:23;;;;;;;11.00;3.83;;;;;;;;;;5101322;27;20038;-83
2022/06/12 02:08:52;;;;;;;11.95;3.67;;;;;;;;;;5083636;28;20081;-82
2022/06/12 02:14:15;;;;;;;9.48;3.53;;;;;;;;;;5100945;27;20050;-83
2022/06/12 02:16:44;;;;;;;10.25;3.60;;;;;;;;;;5100374;28;20044;-83
2022/06/12 02:19:12;;;;;;;11.48;3.60;;;;;;;;;;5109247;27;20035;-83
2022/06/12 02:21:41;;;;;;;9.23;3.75;;;;;;;;;;5097375;27;20042;-83
2022/06/12 02:24:10;;;;;;;10.95;4.10;;;;;;;;;;5087087;28;20245;-82
2022/06/12 02:26:36;;;;;;;10.88;3.55;;;;;;;;;;5106069;27;20031;-83
2022/06/12 02:29:05;;;;;;;9.52;3.70;;;;;;;;;;5079403;27;20251;-83
2022/06/12 02:31:34;;;;;;;10.20;3.30;;;;;;;;;;5090933;28;20043;-83
2022/06/12 02:34:02;;;;;;;9.43;4.00;;;;;;;;;;5101723;27;20043;-83
2022/06/12 02:36:30;;;;;;;9.38;3.72;;;;;;;;;;5099335;28;20597;-82
2022/06/12 02:39:02;;;;;;;8.55;3.30;;;;;;;;;;5092256;27;20483;-83
2022/06/12 02:41:28;;;;;;;12.07;3.78;;;;;;;;;;5098264;27;20031;-83
2022/06/12 02:43:56;;;;;;;10.70;3.33;;;;;;;;;;5102605;28;20047;-83
2022/06/12 02:46:27;;;;;;;8.93;3.35;;;;;;;;;;5106327;27;20038;-83
2022/06/12 02:48:53;;;;;;;9.52;3.95;;;;;;;;;;5077123;28;20047;-83
2022/06/12 02:51:34;;;;;;;8.52;3.70;;;;;;;;;;5098549;27;20041;-83
2022/06/12 02:54:10;;;;;;;8.20;3.60;;;;;;;;;;5083547;28;20078;-83
2022/06/12 02:56:52;;;;;;;11.00;4.00;;;;;;;;;;5108634;27;20050;-83
2022/06/12 02:59:20;;;;;;;9.05;3.42;;;;;;;;;;5082165;27;20387;-83
2022/06/12 03:01:53;;;;;;;9.52;3.75;;;;;;;;;;5100834;28;20043;-83
2022/06/12 03:04:24;;;;;;;10.80;3.85;;;;;;;;;;5108086;27;20413;-83
2022/06/12 03:06:51;;;;;;;8.32;3.63;;;;;;;;;;5063157;27;20108;-83
2022/06/12 03:09:17;;;;;;;10.10;3.53;;;;;;;;;;5086734;28;20085;-82
2022/06/12 03:11:44;;;;;;;8.82;3.40;;;;;;;;;;5068697;28;20040;-83
2022/06/12 03:14:13;;;;;;;7.75;3.25;;;;;;;;;;5091371;27;20046;-83
2022/06/12 03:16:41;;;;;;;8.27;3.47;;;;;;;;;;5062509;27;20039;-83
2022/06/12 03:19:11;;;;;;;13.50;3.55;;;;;;;;;;5103473;28;20039;-83
2022/06/12 03:22:10;;;;;;;8.75;3.70;;;;;;;;;;5104104;27;20103;-83
2022/06/12 03:24:42;;;;;;;10.20;3.33;;;;;;;;;;5022340;28;20426;-83
2022/06/12 03:27:12;;;;;;;9.02;3.72;;;;;;;;;;5083824;27;20042;-83
2022/06/12 03:29:51;;;;;;;7.50;3.38;;;;;;;;;;5097629;28;20436;-83
2022/06/12 03:32:18;;;;;;;8.07;3.17;;;;;;;;;;5108098;28;20046;-84
2022/06/12 03:34:53;;;;;;;10.52;3.15;;;;;;;;;;5098516;27;20069;-83
2022/06/12 03:37:39;;;;;;;8.73;3.28;;;;;;;;;;5099121;28;20089;-83
2022/06/12 03:40:19;;;;;;;9.73;3.25;;;;;;;;;;5107536;28;20042;-83
2022/06/12 03:42:56;;;;;;;9.05;2.95;;;;;;;;;;5082952;27;20035;-83
2022/06/12 03:45:43;;;;;;;10.63;3.70;;;;;;;;;;5096024;28;20039;-83
2022/06/12 03:48:15;;;;;;;13.27;3.70;;;;;;;;;;5029527;27;20043;-83
2022/06/12 03:50:46;;;;;;;10.25;3.38;;;;;;;;;;5102163;28;20184;-83
2022/06/12 03:53:13;;;;;;;8.85;3.53;;;;;;;;;;5087932;27;20035;-82
2022/06/12 03:58:30;;;;;;;8.05;3.42;;;;;;;;;;5102372;28;20082;-81
2022/06/12 04:00:57;;;;;;;8.30;3.60;;;;;;;;;;5086501;27;20058;-82
2022/06/12 04:03:31;;;;;;;8.15;3.35;;;;;;;;;;5095089;28;20070;-81
2022/06/12 04:06:00;;;;;;;7.18;3.47;;;;;;;;;;5088883;28;20092;-81
2022/06/12 04:08:47;;;;;;;9.20;3.00;;;;;;;;;;5100304;27;20038;-81
2022/06/12 04:11:15;;;;;;;9.30;3.20;;;;;;;;;;5094556;28;20039;-81
2022/06/12 04:13:42;;;;;;;11.43;3.58;;;;;;;;;;5107163;28;20706;-81
2022/06/12 04:16:31;;;;;;;11.18;3.40;;;;;;;;;;5081895;28;20093;-81
2022/06/12 04:18:58;;;;;;;9.35;3.42;;;;;;;;;;5065592;28;20048;-81
2022/06/12 04:21:24;;;;;;;6.90;2.92;;;;;;;;;;5106892;28;20036;-81
2022/06/12 04:24:29;;;;;;;7.63;3.47;;;;;;;;;;5097172;28;20042;-81
2022/06/12 04:26:58;;;;;;;10.55;3.47;;;;;;;;;;4973194;28;20046;-81
2022/06/12 04:29:26;;;;;;;7.97;2.88;;;;;;;;;;4984238;28;20046;-82
2022/06/12 04:31:55;;;;;;;8.30;2.83;;;;;;;;;;5036825;28;20378;-81
2022/06/12 04:34:50;;;;;;;9.52;3.22;;;;;;;;;;5098171;28;20050;-81
2022/06/12 04:37:18;;;;;;;11.00;3.60;;;;;;;;;;5055353;28;20087;-81
2022/06/12 04:39:45;;;;;;;8.50;3.28;;;;;;;;;;5098844;28;20042;-81
2022/06/12 04:42:15;;;;;;;7.25;2.90;;;;;;;;;;5098562;28;20040;-81
2022/06/12 04:44:41;;;;;;;9.20;3.00;;;;;;;;;;5106804;28;20099;-82
2022/06/12 04:47:08;;;;;;;8.68;3.03;;;;;;;;;;5094913;28;20047;-81
2022/06/12 04:49:35;;;;;;;8.73;3.17;;;;;;;;;;5102537;28;20040;-82
2022/06/12 04:52:03;;;;;;;8.73;3.05;;;;;;;;;;5083691;28;20047;-81
2022/06/12 04:54:30;;;;;;;12.20;3.58;;;;;;;;;;5103212;28;20046;-81
2022/06/12 04:56:56;;;;;;;7.78;3.00;;;;;;;;;;5094705;28;20092;-81
2022/06/12 04:59:23;;;;;;;10.02;3.60;;;;;;;;;;5110740;28;20043;-81
2022/06/12 05:01:49;;;;;;;10.68;3.40;;;;;;;;;;5091835;28;20039;-81
2022/06/12 05:04:16;;;;;;;8.40;3.15;;;;;;;;;;5093462;28;20122;-81
2022/06/12 05:06:44;;;;;;;9.63;3.90;;;;;;;;;;5094193;28;20035;-81
2022/06/12 05:09:11;;;;;;;9.20;3.08;;;;;;;;;;5102517;28;20109;-81
2022/06/12 05:11:37;;;;;;;12.02;3.10;;;;;;;;;;5087320;28;20509;-81
2022/06/12 05:14:04;;;;;;;9.63;3.58;;;;;;;;;;5113063;28;20039;-82
2022/06/12 05:16:32;;;;;;;8.02;3.47;;;;;;;;;;5085564;28;20055;-82
2022/06/12 05:18:59;;;;;;;8.30;3.25;;;;;;;;;;5075763;28;20040;-81
2022/06/12 05:21:26;;;;;;;9.50;3.08;;;;;;;;;;5081215;28;20502;-81
2022/06/12 05:23:52;;;;;;;8.80;3.00;;;;;;;;;;5056082;28;20043;-81
2022/06/12 05:26:19;;;;;;;10.27;3.60;;;;;;;;;;5082219;28;20035;-81
2022/06/12 05:28:45;;;;;;;9.93;3.97;;;;;;;;;;5072908;28;20061;-82
2022/06/12 05:31:18;;;;;;;8.93;2.95;;;;;;;;;;5089672;28;20042;-81
2022/06/12 05:33:45;;;;;;;10.13;2.95;;;;;;;;;;5083767;28;20032;-81
2022/06/12 05:36:12;;;;;;;10.95;3.03;;;;;;;;;;5080151;27;20045;-80
2022/06/12 05:38:39;;;;;;;8.65;3.40;;;;;;;;;;5106841;28;20495;-82
2022/06/12 05:41:06;;;;;;;12.40;3.47;;;;;;;;;;5072510;28;20505;-83
2022/06/12 05:43:32;;;;;;;10.00;3.45;;;;;;;;;;5075652;28;20038;-80
2022/06/12 05:45:58;;;;;;;11.45;3.40;;;;;;;;;;5079251;28;20042;-81
2022/06/12 05:48:24;;;;;;;10.68;3.35;;;;;;;;;;5078042;28;20043;-84
2022/06/12 05:50:58;;;;;;;9.85;3.40;;;;;;;;;;5087261;27;20066;-81
2022/06/12 05:53:25;;;;;;;14.77;3.97;;;;;;;;;;5098213;28;20126;-82
2022/06/12 05:55:53;;;;;;;11.40;3.50;;;;;;;;;;5106883;28;20212;-82
2022/06/12 05:58:20;;;;;;;10.80;3.45;;;;;;;;;;5098100;27;20087;-81
2022/06/12 06:00:47;;;;;;;11.02;3.15;;;;;;;;;;5075908;28;20495;-82
2022/06/12 06:03:13;;;;;;;10.90;3.78;;;;;;;;;;5086476;28;20059;-82
2022/06/12 06:05:40;;;;;;;12.50;4.25;;;;;;;;;;5087949;27;20494;-82
2022/06/12 06:08:08;;;;;;;11.95;4.55;;;;;;;;;;5092770;28;20043;-82
2022/06/12 06:10:34;;;;;;;12.75;3.53;;;;;;;;;;5098439;27;20051;-82
2022/06/12 06:13:01;;;;;;;13.35;3.95;;;;;;;;;;5087635;28;20047;-82
2022/06/12 06:15:28;;;;;;;11.38;3.42;;;;;;;;;;5061804;28;20036;-83
2022/06/12 06:17:54;;;;;;;14.55;4.68;;;;;;;;;;5077653;28;20042;-82
2022/06/12 06:20:22;;;;;;;10.82;3.58;;;;;;;;;;5093997;28;20036;-82
2022/06/12 06:22:49;;;;;;;12.75;3.95;;;;;;;;;;5095169;28;20046;-82
2022/06/12 06:25:16;;;;;;;16.83;5.18;;;;;;;;;;5083010;27;20219;-82
2022/06/12 06:27:42;;;;;;;15.32;4.45;;;;;;;;;;5106424;28;20085;-82
2022/06/12 06:30:09;;;;;;;21.33;5.95;;;;;;;;;;5104408;27;20035;-81
2022/06/12 06:32:35;;;;;;;16.40;5.00;;;;;;;;;;5092868;28;20047;-81
2022/06/12 06:35:01;;;;;;;12.57;4.78;;;;;;;;;;5075550;28;20039;-82
2022/06/12 06:37:28;;;;;;;16.33;4.95;;;;;;;;;;5077569;27;20035;-82
2022/06/12 06:39:54;;;;;;;16.92;4.55;;;;;;;;;;5105289;27;20114;-82
2022/06/12 06:42:20;;;;;;;19.80;5.60;;;;;;;;;;5103109;27;20056;-79
2022/06/12 06:47:31;;;;;;;15.85;4.75;;;;;;;;;;5100574;27;20130;-82
2022/06/12 06:49:57;;;;;;;20.95;5.50;;;;;;;;;;5101630;28;20035;-82
2022/06/12 06:52:24;;;;;;;14.48;4.63;;;;;;;;;;5092811;28;20054;-82
2022/06/12 06:54:50;;;;;;;14.63;5.13;;;;;;;;;;5112222;27;20035;-82
2022/06/12 06:57:16;;;;;;;13.90;5.13;;;;;;;;;;5098013;27;20046;-81
2022/06/12 06:59:42;;;;;;;17.88;5.68;;;;;;;;;;5116467;27;20042;-82
2022/06/12 07:02:09;;;;;;;23.27;6.10;;;;;;;;;;5115654;27;20422;-83
2022/06/12 07:04:36;;;;;;;15.10;5.43;;;;;;;;;;5092504;27;20131;-81
2022/06/12 07:07:03;;;;;;;16.70;5.05;;;;;;;;;;5068136;27;20076;-81
2022/06/12 07:09:39;;;;;;;18.15;5.03;;;;;;;;;;5100248;28;20079;-81
2022/06/12 07:12:06;;;;;;;15.43;4.82;;;;;;;;;;5088925;28;20058;-81
2022/06/12 07:14:32;;;;;;;19.17;5.10;;;;;;;;;;5108577;28;20039;-80
2022/06/12 07:16:59;;;;;;;13.35;4.82;;;;;;;;;;5061868;28;20043;-80
2022/06/12 07:19:26;;;;;;;17.02;5.03;;;;;;;;;;5095318;27;20050;-81
2022/06/12 07:21:52;;;;;;;16.55;4.70;;;;;;;;;;5096526;28;20039;-81
2022/06/12 07:24:19;;;;;;;15.93;4.70;;;;;;;;;;5105992;27;20045;-81
2022/06/12 07:26:46;;;;;;;15.15;4.60;;;;;;;;;;5082033;28;20090;-81
2022/06/12 07:29:14;;;;;;;13.40;4.15;;;;;;;;;;5082449;28;20039;-82
2022/06/12 07:31:41;;;;;;;13.80;4.63;;;;;;;;;;5084886;27;20049;-82
2022/06/12 07:34:08;;;;;;;17.73;5.38;;;;;;;;;;5095698;27;20114;-80
2022/06/12 07:36:35;;;;;;;15.90;4.55;;;;;;;;;;5095870;27;20062;-82
2022/06/12 07:39:01;;;;;;;13.90;4.80;;;;;;;;;;5100813;28;20039;-81
2022/06/12 07:41:33;;;;;;;14.82;4.63;;;;;;;;;;5106105;27;20035;-82
2022/06/12 07:44:00;;;;;;;13.85;4.28;;;;;;;;;;5108754;28;20439;-81
2022/06/12 07:46:27;;;;;;;14.80;4.38;;;;;;;;;;5098578;27;20410;-81
2022/06/12 07:48:53;;;;;;;15.30;4.57;;;;;;;;;;5100363;28;20039;-81
2022/06/12 07:51:21;;;;;;;16.98;5.60;;;;;;;;;;5089601;27;20062;-81
2022/06/12 07:53:48;;;;;;;16.95;4.15;;;;;;;;;;5094359;27;20044;-81
2022/06/12 07:56:15;;;;;;;15.80;4.45;;;;;;;;;;5104628;28;20042;-82
2022/06/12 07:58:41;;;;;;;15.55;4.68;;;;;;;;;;5101995;27;20035;-81
2022/06/12 08:01:09;;;;;;;13.57;4.15;;;;;;;;;;5111242;27;20035;-81
2022/06/12 08:03:35;;;;;;;16.60;4.20;;;;;;;;;;5078009;28;20482;-81
2022/06/12 08:06:02;;;;;;;12.98;4.05;;;;;;;;;;5087745;28;20220;-82
2022/06/12 08:08:29;;;;;;;13.60;4.43;;;;;;;;;;5101664;27;20111;-81
2022/06/12 08:10:55;;;;;;;13.77;4.43;;;;;;;;;;5083969;28;20568;-81
2022/06/12 08:13:23;;;;;;;16.98;4.47;;;;;;;;;;5105560;27;20255;-81
2022/06/12 08:15:50;;;;;;;14.48;4.40;;;;;;;;;;5080492;27;20080;-80
2022/06/12 08:18:17;;;;;;;12.77;4.35;;;;;;;;;;5111882;27;20035;-80
2022/06/12 08:20:46;;;;;;;14.90;4.38;;;;;;;;;;5096520;28;20071;-81
2022/06/12 08:23:26;;;;;;;13.98;4.05;;;;;;;;;;5092847;28;20085;-83
2022/06/12 08:25:57;;;;;;;12.80;3.92;;;;;;;;;;5103889;28;20040;-79
2022/06/12 08:28:23;;;;;;;9.65;3.78;;;;;;;;;;5074443;28;20429;-80
2022/06/12 08:30:50;;;;;;;14.88;4.32;;;;;;;;;;5090492;28;20047;-82
2022/06/12 08:33:16;;;;;;;16.83;4.78;;;;;;;;;;5095063;28;20039;-81
2022/06/12 08:35:43;;;;;;;15.38;3.95;;;;;;;;;;5085593;28;20152;-82
2022/06/12 08:38:09;;;;;;;13.25;4.07;;;;;;;;;;5085922;28;20046;-81
2022/06/12 08:40:38;;;;;;;14.38;4.10;;;;;;;;;;5111127;28;20047;-82
2022/06/12 08:43:09;;;;;;;11.95;3.55;;;;;;;;;;5090638;28;20039;-81
2022/06/12 08:45:44;;;;;;;11.70;4.03;;;;;;;;;;5098938;28;20126;-81
2022/06/12 08:48:10;;;;;;;14.30;3.63;;;;;;;;;;5097078;28;20040;-80
2022/06/12 08:50:42;;;;;;;12.52;3.88;;;;;;;;;;5090261;28;20088;-82
2022/06/12 08:53:09;;;;;;;12.48;3.63;;;;;;;;;;5079213;28;20146;-82
2022/06/12 08:55:47;;;;;;;11.82;3.85;;;;;;;;;;5084308;28;20376;-81
2022/06/12 08:58:13;;;;;;;14.20;3.67;;;;;;;;;;5088925;28;20057;-81
2022/06/12 09:00:40;;;;;;;12.18;3.55;;;;;;;;;;5094040;28;20123;-81
2022/06/12 09:03:08;;;;;;;15.43;3.90;;;;;;;;;;5087543;28;20556;-82
2022/06/12 09:05:53;;;;;;;11.23;3.70;;;;;;;;;;5087199;27;20439;-82
2022/06/12 09:08:19;;;;;;;;;;;;;;;;;;5081732;27;20452;-82
2022/06/12 09:10:49;;;;;;;12.23;4.40;;;;;;;;;;5092557;28;19924;-82
2022/06/12 09:13:26;;;;;;;11.55;4.05;;;;;;;;;;5087312;27;20075;-80
2022/06/12 09:15:58;;;;;;;12.15;4.00;;;;;;;;;;5097694;27;20047;-81
2022/06/12 09:18:28;;;;;;;10.88;3.90;;;;;;;;;;5081526;27;20071;-82
2022/06/12 09:20:54;;;;;;;10.88;3.70;;;;;;;;;;5090022;28;20092;-80
2022/06/12 09:23:37;;;;;;;10.20;4.18;;;;;;;;;;5089291;27;20041;-80
2022/06/12 09:26:22;;;;;;;11.75;4.45;;;;;;;;;;5113452;27;20045;-82
2022/06/12 09:28:48;;;;;;;12.88;3.95;;;;;;;;;;5084775;27;20039;-82
2022/06/12 09:31:19;;;;;;;10.50;4.07;;;;;;;;;;5085540;28;20371;-82
2022/06/12 09:33:54;;;;;;;12.75;3.80;;;;;;;;;;5111056;27;20042;-83
2022/06/12 09:36:30;;;;;;;11.50;3.67;;;;;;;;;;5083926;27;20388;-82
2022/06/12 09:39:14;;;;;;;8.07;3.50;;;;;;;;;;5103563;28;20305;-82
2022/06/12 09:41:56;;;;;;;10.38;3.85;;;;;;;;;;5111318;27;20513;-82
2022/06/12 09:44:43;;;;;;;13.23;4.13;;;;;;;;;;5090673;28;20449;-83
2022/06/12 09:47:21;;;;;;;10.05;3.92;;;;;;;;;;5093639;28;20514;-83
2022/06/12 09:49:50;;;;;;;11.43;3.92;;;;;;;;;;5096686;27;20039;-82
2022/06/12 09:52:27;;;;;;;10.45;3.72;;;;;;;;;;5090169;28;20139;-81
2022/06/12 09:54:59;;;;;;;11.65;3.40;;;;;;;;;;5105707;27;20043;-82
2022/06/12 09:57:31;;;;;;;9.55;3.35;;;;;;;;;;5096750;28;20106;-83
2022/06/12 09:59:58;;;;;;;8.07;2.92;;;;;;;;;;5108825;28;20036;-82
2022/06/12 10:02:30;;;;;;;8.82;2.80;;;;;;;;;;5103178;27;20368;-82
2022/06/12 10:05:00;;;;;;;8.82;3.25;;;;;;;;;;5082563;28;20036;-82
2022/06/12 10:07:32;;;;;;;8.23;2.60;;;;;;;;;;5093045;27;20573;-82
2022/06/12 10:10:10;;;;;;;9.48;2.65;;;;;;;;;;5082866;27;20134;-82
2022/06/12 10:12:42;;;;;;;8.77;2.90;;;;;;;;;;5100745;28;20077;-82
2022/06/12 10:15:18;;;;;;;7.68;2.80;;;;;;;;;;5109634;27;20502;-81
2022/06/12 10:17:46;;;;;;;11.88;3.92;;;;;;;;;;5093446;28;20562;-81
2022/06/12 10:20:16;;;;;;;8.82;2.97;;;;;;;;;;5104490;27;20042;-82
2022/06/12 10:22:44;;;;;;;10.65;3.38;;;;;;;;;;5082621;28;20411;-81
2022/06/12 10:25:19;;;;;;;7.38;2.67;;;;;;;;;;5092431;27;20054;-82
2022/06/12 10:27:48;;;;;;;9.07;3.33;;;;;;;;;;5100444;27;20126;-81
2022/06/12 10:30:30;;;;;;;7.63;2.92;;;;;;;;;;5096854;27;20039;-81
2022/06/12 10:32:57;;;;;;;8.80;2.97;;;;;;;;;;5079723;27;20044;-82
2022/06/12 10:35:24;;;;;;;10.60;3.17;;;;;;;;;;5090986;28;20031;-82
2022/06/12 10:37:51;;;;;;;7.30;2.53;;;;;;;;;;5085842;27;20114;-82
2022/06/12 10:40:22;;;;;;;8.43;2.50;;;;;;;;;;5090926;28;20063;-82
2022/06/12 10:42:53;;;;;;;5.57;2.22;;;;;;;;;;5090203;27;20053;-82
2022/06/12 10:45:20;;;;;;;6.13;2.20;;;;;;;;;;5075726;28;20089;-82
2022/06/12 10:47:47;;;;;;;8.88;2.45;;;;;;;;;;5103133;27;20035;-82
2022/06/12 10:50:14;;;;;;;5.53;2.10;;;;;;;;;;5081263;28;20542;-81
2022/06/12 10:52:53;;;;;;;7.03;2.40;;;;;;;;;;5108790;27;20039;-81
2022/06/12 10:55:21;;;;;;;5.50;1.90;;;;;;;;;;5100357;27;20039;-81
2022/06/12 10:57:51;;;;;;;6.60;2.53;;;;;;;;;;5083965;28;20035;-81
2022/06/12 11:00:23;;;;;;;4.78;1.92;;;;;;;;;;5091389;27;20036;-81
2022/06/12 11:02:52;;;;;;;9.65;2.28;;;;;;;;;;5097201;27;20050;-82
2022/06/12 11:05:37;;;;;;;7.70;2.35;;;;;;;;;;5103218;28;20118;-82
2022/06/12 11:08:04;;;;;;;7.00;2.22;;;;;;;;;;5090860;27;20127;-82
2022/06/12 11:10:50;;;;;;;5.65;2.00;;;;;;;;;;5095905;27;20570;-80
2022/06/12 11:13:28;;;;;;;8.13;2.13;;;;;;;;;;5085902;28;20587;-81
2022/06/12 11:16:00;;;;;;;6.32;1.77;;;;;;;;;;5092537;28;20498;-82
2022/06/12 11:18:29;;;;;;;4.72;1.98;;;;;;;;;;5079088;27;20077;-82
2022/06/12 11:21:02;;;;;;;7.50;2.15;;;;;;;;;;5087190;28;20044;-81
2022/06/12 11:23:44;;;;;;;5.15;2.03;;;;;;;;;;5104266;27;20039;-79
2022/06/12 11:26:23;;;;;;;6.15;2.45;;;;;;;;;;5078783;27;20487;-81
2022/06/12 11:28:55;;;;;;;4.95;2.00;;;;;;;;;;5111816;27;20104;-81
2022/06/12 11:31:40;;;;;;;6.97;2.38;;;;;;;;;;5114291;27;20088;-80
2022/06/12 11:34:15;;;;;;;8.70;2.47;;;;;;;;;;5114341;27;20100;-80
2022/06/12 11:37:03;;;;;;;6.47;2.08;;;;;;;;;;5097677;27;20031;-80
2022/06/12 11:39:29;;;;;;;6.78;2.10;;;;;;;;;;5114610;27;20440;-83
2022/06/12 11:42:14;;;;;;;7.78;2.33;;;;;;;;;;5115430;27;20120;-82
2022/06/12 11:44:47;;;;;;;6.78;2.28;;;;;;;;;;5105668;28;20035;-82
2022/06/12 11:47:31;;;;;;;6.70;2.00;;;;;;;;;;5077547;28;20040;-82
2022/06/12 11:50:21;;;;;;;9.45;2.28;;;;;;;;;;5094292;28;20035;-80
2022/06/12 11:52:54;;;;;;;10.48;2.30;;;;;;;;;;5077245;28;20081;-82
2022/06/12 11:55:23;;;;;;;7.40;2.22;;;;;;;;;;5076939;28;20044;-82
2022/06/12 11:57:56;;;;;;;6.28;2.60;;;;;;;;;;5073235;28;20036;-80
2022/06/12 12:00:28;;;;;;;7.90;2.58;;;;;;;;;;5073498;28;20044;-80
2022/06/12 12:03:13;;;;;;;6.88;2.33;;;;;;;;;;5098638;27;20124;-81
2022/06/12 12:05:42;;;;;;;7.60;2.42;;;;;;;;;;5078269;27;20327;-81
2022/06/12 12:08:12;;;;;;;8.60;2.20;;;;;;;;;;5111087;27;20047;-81
2022/06/12 12:10:43;;;;;;;8.30;2.85;;;;;;;;;;5098339;28;20067;-81
2022/06/12 12:13:11;;;;;;;8.93;2.60;;;;;;;;;;5090758;27;20039;-81
2022/06/12 12:15:47;;;;;;;7.10;3.10;;;;;;;;;;5078977;27;20103;-81
2022/06/12 12:18:25;;;;;;;7.47;2.60;;;;;;;;;;5100972;28;20498;-80
2022/06/12 12:20:52;;;;;;;6.53;2.33;;;;;;;;;;5106462;28;20560;-81
2022/06/12 12:23:22;;;;;;;7.80;2.55;;;;;;;;;;5095004;28;20042;-81
2022/06/12 12:25:51;;;;;;;6.50;2.38;;;;;;;;;;5102596;28;20097;-79
2022/06/12 12:28:29;;;;;;;6.63;2.50;;;;;;;;;;5102827;28;20068;-81
2022/06/12 12:30:58;;;;;;;8.13;2.42;;;;;;;;;;5094311;28;20320;-81
2022/06/12 12:33:24;;;;;;;8.02;2.53;;;;;;;;;;5088171;28;20092;-81
2022/06/12 12:41:38;;;;;;;7.65;2.30;;;;;;;;;;5074245;28;20052;-81
2022/06/12 12:44:05;;;;;;;7.60;2.42;;;;;;;;;;5083131;27;20055;-77
2022/06/12 12:46:44;;;;;;;5.82;2.05;;;;;;;;;;5098141;28;20047;-79
2022/06/12 12:49:20;;;;;;;7.68;2.50;;;;;;;;;;5100732;27;20031;-84
2022/06/12 12:51:47;;;;;;;6.28;2.03;;;;;;;;;;5115567;27;20121;-83
2022/06/12 12:54:20;;;;;;;8.23;2.28;;;;;;;;;;5100287;28;20391;-85
2022/06/12 12:57:13;;;;;;;9.13;2.27;;;;;;;;;;5080028;28;20039;-86
2022/06/12 12:59:39;;;;;;;5.57;2.05;;;;;;;;;;5093425;28;20048;-79
2022/06/12 13:02:18;;;;;;;7.68;2.83;;;;;;;;;;5095243;28;20039;-81
2022/06/12 13:04:44;;;;;;;7.13;1.92;;;;;;;;;;5089356;28;20448;-82
2022/06/12 13:07:14;;;;;;;10.43;2.65;;;;;;;;;;5092693;28;20064;-82
2022/06/12 13:10:04;;;;;;;7.57;2.22;;;;;;;;;;5096256;28;20052;-83
2022/06/12 13:12:45;;;;;;;8.90;2.50;;;;;;;;;;5055563;28;20066;-82
2022/06/12 13:15:30;;;;;;;9.27;1.92;;;;;;;;;;5093422;28;20398;-82
2022/06/12 13:18:09;;;;;;;7.63;2.15;;;;;;;;;;5091178;28;20043;-82
2022/06/12 13:20:47;;;;;;;7.18;2.22;;;;;;;;;;5092005;28;20044;-82
2022/06/12 13:23:14;;;;;;;6.97;1.80;;;;;;;;;;5075042;28;20050;-83
2022/06/12 13:25:41;;;;;;;7.95;2.22;;;;;;;;;;5092361;28;20106;-79
2022/06/12 13:28:23;;;;;;;6.68;2.10;;;;;;;;;;5092112;28;20123;-81
2022/06/12 13:30:49;;;;;;;7.22;2.13;;;;;;;;;;5095168;28;20039;-81
2022/06/12 13:33:21;;;;;;;7.90;2.35;;;;;;;;;;5094206;28;20401;-82
2022/06/12 13:35:49;;;;;;;6.93;2.22;;;;;;;;;;5074318;27;20048;-78
2022/06/12 13:38:24;;;;;;;5.90;1.92;;;;;;;;;;5096180;28;20047;-81
2022/06/12 13:40:55;;;;;;;8.43;2.03;;;;;;;;;;5087384;28;20495;-82
2022/06/12 13:43:23;;;;;;;6.75;2.22;;;;;;;;;;5077160;28;20499;-83
2022/06/12 13:45:50;;;;;;;7.22;2.17;;;;;;;;;;5077382;28;20065;-86
2022/06/12 13:48:20;;;;;;;5.38;2.30;;;;;;;;;;5091011;28;20100;-87
2022/06/12 13:50:50;;;;;;;6.35;1.98;;;;;;;;;;5070535;28;20180;-81
2022/06/12 13:53:17;;;;;;;5.72;1.90;;;;;;;;;;5075996;28;20506;-81
2022/06/12 13:55:57;;;;;;;11.48;2.50;;;;;;;;;;5092653;28;20047;-81
2022/06/12 13:58:27;;;;;;;9.23;2.63;;;;;;;;;;5084867;27;20047;-77
2022/06/12 14:00:59;;;;;;;6.65;2.20;;;;;;;;;;5099298;28;20495;-77
2022/06/12 14:03:28;;;;;;;7.47;2.30;;;;;;;;;;5109344;27;20227;-77
2022/06/12 14:06:01;;;;;;;4.85;1.90;;;;;;;;;;5099455;27;20120;-78
2022/06/12 14:08:28;;;;;;;8.68;2.45;;;;;;;;;;5102725;28;20042;-79
2022/06/12 14:10:55;;;;;;;10.93;3.13;;;;;;;;;;5108748;27;20075;-80
2022/06/12 14:13:25;;;;;;;9.85;2.63;;;;;;;;;;5080229;27;20058;-82
2022/06/12 14:15:51;;;;;;;6.80;2.75;;;;;;;;;;5089063;28;20039;-80
2022/06/12 14:18:23;;;;;;;8.10;2.45;;;;;;;;;;5104820;27;20453;-79
2022/06/12 14:20:59;;;;;;;7.95;2.47;;;;;;;;;;5080292;28;20044;-79
2022/06/12 14:23:25;;;;;;;10.75;2.75;;;;;;;;;;5081206;27;20494;-79
2022/06/12 14:25:53;;;;;;;7.45;2.58;;;;;;;;;;5107410;27;20039;-82
2022/06/12 14:28:19;;;;;;;5.78;2.60;;;;;;;;;;5098426;27;20035;-82
2022/06/12 14:31:06;;;;;;;9.75;2.70;;;;;;;;;;5089124;27;20044;-81
2022/06/12 14:33:44;;;;;;;9.63;3.10;;;;;;;;;;5097774;27;20035;-79
2022/06/12 14:36:12;;;;;;;7.65;3.40;;;;;;;;;;5113922;27;20486;-79
2022/06/12 14:38:40;;;;;;;8.90;2.75;;;;;;;;;;5080854;28;20085;-81
2022/06/12 14:41:23;;;;;;;8.57;3.20;;;;;;;;;;5078185;28;20135;-81
2022/06/12 14:43:54;;;;;;;9.95;3.03;;;;;;;;;;5094613;28;20062;-81
2022/06/12 14:46:23;;;;;;;8.75;2.90;;;;;;;;;;5094906;28;20487;-82
2022/06/12 14:48:49;;;;;;;11.35;2.75;;;;;;;;;;5080039;27;20043;-81
2022/06/12 14:51:16;;;;;;;8.07;3.13;;;;;;;;;;5114221;27;20046;-82
2022/06/12 14:53:42;;;;;;;9.05;3.28;;;;;;;;;;5095404;27;20216;-78
2022/06/12 14:56:17;;;;;;;8.82;2.90;;;;;;;;;;5098053;28;20078;-78
2022/06/12 14:58:44;;;;;;;10.85;3.13;;;;;;;;;;5073481;28;20399;-78
2022/06/12 15:01:12;;;;;;;11.73;3.35;;;;;;;;;;5073373;28;20047;-79
2022/06/12 15:03:38;;;;;;;9.75;3.10;;;;;;;;;;5091000;28;20036;-80
2022/06/12 15:06:05;;;;;;;10.43;3.50;;;;;;;;;;5092858;27;20490;-80
2022/06/12 15:08:31;;;;;;;9.38;2.75;;;;;;;;;;5079548;27;20039;-80
2022/06/12 15:10:58;;;;;;;8.52;2.95;;;;;;;;;;5096883;27;20058;-80
2022/06/12 15:13:25;;;;;;;8.32;2.88;;;;;;;;;;5085429;28;20507;-79
2022/06/12 15:15:52;;;;;;;8.82;2.58;;;;;;;;;;5093488;28;20358;-79
2022/06/12 15:18:19;;;;;;;7.65;2.80;;;;;;;;;;5092342;28;20082;-81